createdAt,value
2022-11-15T00:00:52.829Z,10.77
2022-11-15T00:03:22.113Z,14.48
2022-11-15T00:05:48.729Z,10.15
2022-11-15T00:08:15.744Z,9.75
2022-11-15T00:10:42.934Z,11.13
2022-11-15T00:13:11.861Z,9.88
2022-11-15T00:15:42.532Z,11.38
2022-11-15T00:18:16.050Z,8.70
2022-11-15T00:20:42.746Z,8.48
2022-11-15T00:23:09.486Z,9.80
2022-11-15T00:25:36.441Z,10.73
2022-11-15T00:28:03.216Z,8.85
2022-11-15T00:30:29.944Z,9.52
2022-11-15T00:32:56.747Z,9.00
2022-11-15T00:35:23.729Z,8.38
2022-11-15T00:37:50.317Z,8.55
2022-11-15T00:40:17.066Z,9.68
2022-11-15T00:42:43.655Z,10.63
2022-11-15T00:45:10.889Z,8.15
2022-11-15T00:47:37.489Z,9.63
2022-11-15T00:50:05.264Z,7.78
2022-11-15T00:52:31.905Z,9.85
2022-11-15T00:54:58.506Z,6.75
2022-11-15T00:57:25.105Z,7.72
2022-11-15T00:59:51.718Z,8.50
2022-11-15T01:02:18.296Z,7.93
2022-11-15T01:04:44.949Z,8.57
2022-11-15T01:07:11.639Z,8.75
2022-11-15T01:09:38.257Z,8.18
2022-11-15T01:12:05.251Z,9.35
2022-11-15T01:14:31.857Z,7.93
2022-11-15T01:16:58.441Z,9.68
2022-11-15T01:19:25.069Z,8.60
2022-11-15T01:21:52.057Z,7.90
2022-11-15T01:24:18.659Z,6.43
2022-11-15T01:26:45.380Z,7.45
2022-11-15T01:29:12.018Z,8.75
2022-11-15T01:31:39.082Z,6.93
2022-11-15T01:34:05.681Z,8.50
2022-11-15T01:36:32.368Z,8.32
2022-11-15T01:38:59.703Z,8.73
2022-11-15T01:41:35.058Z,6.85
2022-11-15T01:44:29.385Z,7.68
2022-11-15T01:46:56.724Z,7.03
2022-11-15T01:49:24.772Z,7.75
2022-11-15T01:51:52.438Z,7.57
2022-11-15T01:54:22.215Z,9.50
2022-11-15T01:57:00.500Z,7.63
2022-11-15T01:59:27.440Z,9.05
2022-11-15T02:01:54.428Z,7.57
2022-11-15T02:04:29.827Z,8.27
2022-11-15T02:06:56.769Z,7.32
2022-11-15T02:09:23.593Z,7.82
2022-11-15T02:11:51.626Z,6.95
2022-11-15T02:14:21.041Z,7.07
2022-11-15T02:16:53.553Z,7.40
2022-11-15T02:19:32.254Z,5.70
2022-11-15T02:22:20.733Z,6.60
2022-11-15T02:25:18.568Z,7.43
2022-11-15T02:27:50.987Z,5.45
2022-11-15T02:30:38.876Z,6.30
2022-11-15T02:33:26.165Z,7.22
2022-11-15T02:35:59.635Z,6.22
2022-11-15T02:38:45.163Z,9.30
2022-11-15T02:41:17.833Z,6.93
2022-11-15T02:43:57.884Z,6.25
2022-11-15T02:47:17.439Z,6.50
2022-11-15T02:49:55.601Z,6.28
2022-11-15T02:52:24.304Z,5.47
2022-11-15T02:54:59.380Z,6.07
2022-11-15T02:58:19.745Z,5.18
2022-11-15T03:00:59.241Z,5.95
2022-11-15T03:03:32.096Z,5.10
2022-11-15T03:06:25.481Z,5.55
2022-11-15T03:09:06.610Z,5.18
2022-11-15T03:11:42.889Z,6.18
2022-11-15T03:14:12.321Z,8.30
2022-11-15T03:16:46.478Z,5.38
2022-11-15T03:19:28.288Z,5.55
2022-11-15T03:21:57.116Z,5.55
2022-11-15T03:24:26.407Z,6.63
2022-11-15T03:26:56.012Z,4.90
2022-11-15T03:29:27.220Z,5.35
2022-11-15T03:32:00.817Z,6.07
2022-11-15T03:34:42.722Z,7.00
2022-11-15T03:37:11.797Z,6.45
2022-11-15T03:39:38.478Z,4.97
2022-11-15T03:42:28.266Z,5.78
2022-11-15T03:45:09.482Z,5.63
2022-11-15T03:47:41.557Z,5.00
2022-11-15T03:50:19.576Z,5.10
2022-11-15T03:52:48.697Z,6.53
2022-11-15T03:55:20.540Z,5.07
2022-11-15T03:57:50.538Z,6.65
2022-11-15T04:00:17.685Z,6.88
2022-11-15T04:02:44.278Z,4.80
2022-11-15T04:05:10.933Z,5.90
2022-11-15T04:07:37.574Z,6.65
2022-11-15T04:10:06.264Z,6.13
2022-11-15T04:12:34.700Z,6.38
2022-11-15T04:15:12.383Z,6.00
2022-11-15T04:17:38.891Z,5.18
2022-11-15T04:20:27.009Z,5.68
2022-11-15T04:23:13.305Z,4.65
2022-11-15T04:25:40.606Z,6.88
2022-11-15T04:28:07.422Z,5.18
2022-11-15T04:30:34.055Z,5.47
2022-11-15T04:33:00.758Z,5.70
2022-11-15T04:35:27.822Z,5.70
2022-11-15T04:37:55.166Z,5.60
2022-11-15T04:40:21.851Z,5.57
2022-11-15T04:42:48.461Z,6.60
2022-11-15T04:45:15.160Z,5.78
2022-11-15T04:47:44.966Z,5.35
2022-11-15T04:50:14.374Z,6.07
2022-11-15T04:52:43.236Z,6.07
2022-11-15T04:55:11.623Z,7.25
2022-11-15T04:57:38.878Z,6.35
2022-11-15T05:00:08.105Z,5.38
2022-11-15T05:02:53.329Z,4.93
2022-11-15T05:05:20.101Z,5.00
2022-11-15T05:07:46.667Z,5.60
2022-11-15T05:10:13.266Z,5.00
2022-11-15T05:12:39.851Z,7.07
2022-11-15T05:15:07.036Z,5.25
2022-11-15T05:17:33.670Z,7.97
2022-11-15T05:20:00.289Z,5.65
2022-11-15T05:22:26.984Z,6.07
2022-11-15T05:24:53.604Z,8.77
2022-11-15T05:27:20.298Z,6.28
2022-11-15T05:29:46.943Z,5.10
2022-11-15T05:32:14.265Z,6.15
2022-11-15T05:34:40.911Z,6.55
2022-11-15T05:37:07.920Z,10.98
2022-11-15T05:39:34.524Z,6.00
2022-11-15T05:42:10.541Z,6.30
2022-11-15T05:44:39.290Z,6.65
2022-11-15T05:47:09.951Z,8.18
2022-11-15T05:49:40.446Z,7.13
2022-11-15T05:52:10.524Z,6.03
2022-11-15T05:54:38.296Z,7.85
2022-11-15T05:57:05.985Z,7.03
2022-11-15T05:59:34.457Z,7.03
2022-11-15T06:02:01.295Z,6.55
2022-11-15T06:04:28.285Z,5.18
2022-11-15T06:06:54.873Z,5.80
2022-11-15T06:09:21.486Z,6.63
2022-11-15T06:11:48.862Z,6.65
2022-11-15T06:14:15.411Z,7.40
2022-11-15T06:16:42.122Z,7.43
2022-11-15T06:19:08.920Z,7.15
2022-11-15T06:21:35.607Z,7.22
2022-11-15T06:24:02.390Z,7.22
2022-11-15T06:26:29.066Z,8.07
2022-11-15T06:28:55.653Z,6.97
2022-11-15T06:31:22.247Z,7.15
2022-11-15T06:33:50.526Z,5.85
2022-11-15T06:36:18.351Z,8.27
2022-11-15T06:38:46.013Z,6.18
2022-11-15T06:41:13.917Z,8.07
2022-11-15T06:43:41.236Z,7.32
2022-11-15T06:46:08.477Z,6.15
2022-11-15T06:48:35.948Z,5.60
2022-11-15T06:51:04.231Z,7.15
2022-11-15T06:53:31.665Z,6.88
2022-11-15T06:56:03.372Z,7.80
2022-11-15T06:58:30.086Z,8.07
2022-11-15T07:01:08.627Z,8.10
2022-11-15T07:03:37.005Z,7.25
2022-11-15T07:06:07.389Z,7.10
2022-11-15T07:08:35.171Z,7.78
2022-11-15T07:11:03.942Z,9.23
2022-11-15T07:13:35.887Z,9.32
2022-11-15T07:16:08.145Z,8.03
2022-11-15T07:18:36.547Z,11.82
2022-11-15T07:21:09.268Z,9.05
2022-11-15T07:23:39.824Z,9.02
2022-11-15T07:26:07.416Z,10.98
2022-11-15T07:28:34.283Z,7.43
2022-11-15T07:31:05.510Z,6.68
2022-11-15T07:33:32.851Z,6.53
2022-11-15T07:36:02.606Z,9.30
2022-11-15T07:38:29.966Z,11.60
2022-11-15T07:41:01.658Z,16.88
2022-11-15T07:43:33.916Z,14.82
2022-11-15T07:46:06.324Z,26.60
2022-11-15T07:48:43.373Z,17.10
2022-11-15T07:51:16.311Z,13.07
2022-11-15T07:53:44.093Z,9.80
2022-11-15T07:56:11.281Z,10.75
2022-11-15T07:58:37.974Z,12.55
2022-11-15T08:01:09.847Z,11.88
2022-11-15T08:03:37.142Z,11.95
2022-11-15T08:06:04.307Z,12.75
2022-11-15T08:08:30.993Z,15.85
2022-11-15T08:11:01.306Z,12.05
2022-11-15T08:13:28.610Z,16.48
2022-11-15T08:16:01.898Z,15.25
2022-11-15T08:18:28.624Z,15.02
2022-11-15T08:20:59.709Z,18.08
2022-11-15T08:23:26.314Z,22.80
2022-11-15T08:25:52.972Z,19.88
2022-11-15T08:28:19.534Z,36.08
2022-11-15T08:30:46.654Z,37.17
2022-11-15T08:33:15.000Z,37.63
2022-11-15T08:35:42.472Z,39.53
2022-11-15T08:38:09.229Z,41.45
2022-11-15T08:40:36.448Z,30.10
2022-11-15T08:43:03.698Z,28.67
2022-11-15T08:45:35.676Z,30.05
2022-11-15T08:48:04.330Z,30.25
2022-11-15T08:50:30.976Z,34.08
2022-11-15T08:52:57.614Z,28.58
2022-11-15T08:55:24.955Z,25.95
2022-11-15T08:57:52.021Z,26.23
2022-11-15T09:00:20.981Z,23.23
2022-11-15T09:02:47.954Z,23.58
2022-11-15T09:05:16.166Z,24.40
2022-11-15T09:07:42.770Z,25.15
2022-11-15T09:10:09.791Z,25.38
2022-11-15T09:12:36.479Z,26.98
2022-11-15T09:15:03.933Z,20.95
2022-11-15T09:17:30.485Z,23.00
2022-11-15T09:19:57.128Z,21.50
2022-11-15T09:22:23.793Z,24.20
2022-11-15T09:24:50.390Z,27.70
2022-11-15T09:27:16.968Z,27.00
2022-11-15T09:29:43.617Z,25.33
2022-11-15T09:32:10.329Z,27.88
2022-11-15T09:34:36.910Z,26.45
2022-11-15T09:37:03.486Z,22.35
2022-11-15T09:39:30.119Z,24.70
2022-11-15T09:42:26.490Z,30.27
2022-11-15T09:45:13.352Z,29.27
2022-11-15T09:48:00.112Z,26.85
2022-11-15T09:50:47.933Z,27.15
2022-11-15T09:53:41.494Z,26.33
2022-11-15T09:58:59.314Z,24.05
2022-11-15T10:01:50.531Z,22.83
2022-11-15T10:04:17.990Z,25.15
2022-11-15T10:07:10.756Z,24.75
2022-11-15T10:09:50.446Z,21.80
2022-11-15T10:12:18.443Z,24.15
2022-11-15T10:14:51.612Z,22.63
2022-11-15T10:17:26.729Z,25.70
2022-11-15T10:20:15.083Z,21.33
2022-11-15T10:22:50.601Z,25.38
2022-11-15T10:25:27.238Z,25.08
2022-11-15T10:28:00.910Z,22.30
2022-11-15T10:30:38.471Z,22.10
2022-11-15T10:33:18.518Z,21.20
2022-11-15T10:35:45.167Z,20.13
2022-11-15T10:38:13.188Z,20.50
2022-11-15T10:40:41.685Z,20.30
2022-11-15T10:43:11.044Z,19.60
2022-11-15T10:45:39.272Z,19.50
2022-11-15T10:48:14.694Z,16.88
2022-11-15T10:50:46.466Z,18.38
2022-11-15T10:53:32.296Z,17.48
2022-11-15T10:56:09.322Z,15.27
2022-11-15T10:58:42.448Z,16.48
2022-11-15T11:01:19.264Z,15.85
2022-11-15T11:03:59.737Z,16.25
2022-11-15T11:06:27.178Z,14.48
2022-11-15T11:08:58.522Z,12.15
2022-11-15T11:11:26.618Z,11.70
2022-11-15T11:13:53.668Z,14.60
2022-11-15T11:16:33.847Z,14.38
2022-11-15T11:19:44.829Z,13.13
2022-11-15T11:22:46.886Z,14.77
2022-11-15T11:25:19.319Z,13.02
2022-11-15T11:27:57.886Z,12.30
2022-11-15T11:30:55.192Z,15.50
2022-11-15T11:33:43.065Z,14.13
2022-11-15T11:36:15.533Z,13.32
2022-11-15T11:38:55.886Z,12.85
2022-11-15T11:41:37.921Z,12.88
2022-11-15T11:44:16.299Z,12.85
2022-11-15T11:46:50.653Z,12.73
2022-11-15T11:49:24.219Z,13.50
2022-11-15T11:52:08.957Z,15.13
2022-11-15T11:55:01.884Z,13.63
2022-11-15T11:57:48.305Z,13.77
2022-11-15T12:00:23.497Z,14.48
2022-11-15T12:03:13.299Z,13.23
2022-11-15T12:05:54.935Z,14.15
2022-11-15T12:08:59.096Z,15.45
2022-11-15T12:11:37.125Z,28.33
2022-11-15T12:14:25.519Z,23.33
2022-11-15T12:16:52.238Z,22.58
2022-11-15T12:19:18.836Z,19.98
2022-11-15T12:21:49.534Z,18.25
2022-11-15T12:24:23.413Z,13.75
2022-11-15T12:26:56.782Z,16.60
2022-11-15T12:29:23.319Z,14.55
2022-11-15T12:32:01.065Z,14.95
2022-11-15T12:34:49.873Z,16.42
2022-11-15T12:37:41.691Z,15.25
2022-11-15T12:40:20.505Z,14.73
2022-11-15T12:43:02.298Z,15.88
2022-11-15T12:45:37.768Z,14.27
2022-11-15T12:48:16.597Z,14.45
2022-11-15T12:50:52.722Z,16.52
2022-11-15T12:53:29.561Z,15.73
2022-11-15T12:56:16.047Z,16.38
2022-11-15T12:58:43.510Z,15.77
2022-11-15T13:01:11.625Z,14.40
2022-11-15T13:04:17.014Z,15.73
2022-11-15T13:06:48.532Z,18.27
2022-11-15T13:09:30.148Z,18.83
2022-11-15T13:11:58.456Z,16.95
2022-11-15T13:14:47.058Z,18.40
2022-11-15T13:17:19.721Z,15.55
2022-11-15T13:19:58.369Z,14.93
2022-11-15T13:22:43.497Z,14.75
2022-11-15T13:25:20.162Z,17.58
2022-11-15T13:27:49.625Z,22.10
2022-11-15T13:30:22.408Z,16.60
2022-11-15T13:32:49.864Z,16.85
2022-11-15T13:35:41.215Z,15.43
2022-11-15T13:38:37.145Z,14.48
2022-11-15T13:41:34.586Z,16.00
2022-11-15T13:44:02.423Z,19.15
2022-11-15T13:46:34.068Z,28.40
2022-11-15T13:49:01.986Z,27.58
2022-11-15T13:51:34.566Z,21.45
2022-11-15T13:54:04.345Z,30.08
2022-11-15T13:56:35.042Z,27.52
2022-11-15T13:59:10.241Z,29.55
2022-11-15T14:01:37.486Z,32.25
2022-11-15T14:04:04.349Z,29.92
2022-11-15T14:06:32.439Z,36.28
2022-11-15T14:09:10.029Z,36.47
2022-11-15T14:11:36.893Z,36.67
2022-11-15T14:14:06.266Z,35.97
2022-11-15T14:16:38.426Z,35.90
2022-11-15T14:19:06.709Z,29.13
2022-11-15T14:21:33.720Z,34.40
2022-11-15T14:24:22.046Z,36.63
2022-11-15T14:26:49.561Z,40.05
2022-11-15T14:29:30.030Z,32.20
2022-11-15T14:32:22.831Z,36.90
2022-11-15T14:34:54.639Z,41.65
2022-11-15T14:37:38.402Z,40.08
2022-11-15T14:40:06.911Z,39.72
2022-11-15T14:42:33.515Z,41.25
2022-11-15T14:45:00.165Z,42.28
2022-11-15T14:47:26.788Z,40.53
2022-11-15T14:49:53.401Z,42.45
2022-11-15T14:52:33.020Z,40.55
2022-11-15T14:55:02.264Z,41.63
2022-11-15T14:57:29.942Z,43.15
2022-11-15T14:59:56.651Z,45.00
2022-11-15T15:02:27.946Z,48.13
2022-11-15T15:04:55.446Z,48.88
2022-11-15T15:07:23.213Z,53.42
2022-11-15T15:09:49.902Z,50.65
2022-11-15T15:12:22.053Z,48.10
2022-11-15T15:14:50.821Z,50.13
2022-11-15T15:17:18.485Z,56.08
2022-11-15T15:19:45.291Z,49.33
2022-11-15T15:22:19.884Z,48.72
2022-11-15T15:24:47.225Z,46.83
2022-11-15T15:27:14.051Z,44.60
2022-11-15T15:29:41.046Z,50.88
2022-11-15T15:32:07.995Z,45.63
2022-11-15T15:34:35.052Z,43.70
2022-11-15T15:37:26.946Z,43.50
2022-11-15T15:39:55.338Z,43.53
2022-11-15T15:42:22.924Z,43.35
2022-11-15T15:44:50.920Z,37.90
2022-11-15T15:47:20.858Z,44.92
2022-11-15T15:49:48.352Z,42.85
2022-11-15T15:52:15.033Z,51.38
2022-11-15T15:54:42.190Z,42.88
2022-11-15T15:57:11.973Z,40.33
2022-11-15T15:59:38.560Z,41.78
2022-11-15T16:02:05.555Z,36.10
2022-11-15T16:04:32.165Z,41.67
2022-11-15T16:07:03.450Z,35.45
2022-11-15T16:09:48.466Z,39.33
2022-11-15T16:12:17.257Z,33.90
2022-11-15T16:14:44.076Z,43.95
2022-11-15T16:17:18.408Z,36.65
2022-11-15T16:19:45.049Z,37.97
2022-11-15T16:22:11.695Z,38.70
2022-11-15T16:24:38.420Z,36.00
2022-11-15T16:27:05.262Z,35.75
2022-11-15T16:29:31.881Z,36.03
2022-11-15T16:31:58.444Z,35.13
2022-11-15T16:34:29.985Z,34.28
2022-11-15T16:36:57.744Z,33.40
2022-11-15T16:39:24.352Z,38.00
2022-11-15T16:41:50.939Z,34.35
2022-11-15T16:44:17.627Z,35.80
2022-11-15T16:46:45.932Z,32.85
2022-11-15T16:49:15.223Z,47.42
2022-11-15T16:51:42.690Z,32.15
2022-11-15T16:54:09.269Z,36.55
2022-11-15T16:56:35.888Z,31.92
2022-11-15T16:59:02.622Z,34.78
2022-11-15T17:01:32.832Z,30.95
2022-11-15T17:04:00.134Z,32.05
2022-11-15T17:06:27.018Z,34.00
2022-11-15T17:08:54.525Z,33.13
2022-11-15T17:11:22.704Z,31.73
2022-11-15T17:13:49.696Z,33.38
2022-11-15T17:16:18.349Z,31.80
2022-11-15T17:18:45.784Z,28.63
2022-11-15T17:21:18.417Z,31.35
2022-11-15T17:23:45.740Z,30.10
2022-11-15T17:26:32.969Z,29.98
2022-11-15T17:29:01.695Z,34.25
2022-11-15T17:31:30.836Z,32.92
2022-11-15T17:33:57.566Z,36.03
2022-11-15T17:36:24.140Z,28.15
2022-11-15T17:38:57.947Z,29.48
2022-11-15T17:41:27.058Z,38.53
2022-11-15T17:43:53.927Z,31.70
2022-11-15T17:46:21.419Z,28.77
2022-11-15T17:48:48.937Z,30.27
2022-11-15T17:51:17.889Z,27.63
2022-11-15T17:53:46.704Z,24.83
2022-11-15T17:56:18.915Z,34.40
2022-11-15T17:58:49.638Z,20.95
2022-11-15T18:01:27.619Z,20.90
2022-11-15T18:03:55.694Z,19.85
2022-11-15T18:06:24.010Z,22.33
2022-11-15T18:08:52.218Z,20.17
2022-11-15T18:11:24.450Z,23.13
2022-11-15T18:13:53.650Z,23.20
2022-11-15T18:16:22.665Z,26.02
2022-11-15T18:18:49.256Z,24.50
2022-11-15T18:21:18.821Z,24.50
2022-11-15T18:23:46.930Z,24.58
2022-11-15T18:26:15.393Z,25.30
2022-11-15T18:28:44.599Z,29.13
2022-11-15T18:31:19.661Z,27.40
2022-11-15T18:33:46.289Z,21.80
2022-11-15T18:36:18.592Z,20.23
2022-11-15T18:38:45.351Z,17.63
2022-11-15T18:41:20.791Z,13.48
2022-11-15T18:43:51.383Z,19.65
2022-11-15T18:46:23.703Z,20.35
2022-11-15T18:48:51.435Z,27.93
2022-11-15T18:51:20.781Z,21.63
2022-11-15T18:53:48.252Z,22.02
2022-11-15T18:56:18.671Z,24.15
2022-11-15T18:58:50.601Z,24.05
2022-11-15T19:01:22.528Z,24.08
2022-11-15T19:03:51.382Z,19.00
2022-11-15T19:06:22.074Z,21.08
2022-11-15T19:08:54.770Z,19.73
2022-11-15T19:11:25.522Z,18.13
2022-11-15T19:13:57.039Z,20.67
2022-11-15T19:16:24.388Z,22.95
2022-11-15T19:18:58.925Z,17.23
2022-11-15T19:21:27.000Z,21.08
2022-11-15T19:23:54.329Z,23.48
2022-11-15T19:26:22.722Z,19.15
2022-11-15T19:29:02.799Z,22.55
2022-11-15T19:31:31.468Z,19.50
2022-11-15T19:34:04.566Z,21.20
2022-11-15T19:36:34.356Z,19.17
2022-11-15T19:39:05.646Z,19.52
2022-11-15T19:41:32.439Z,17.83
2022-11-15T19:43:59.149Z,18.20
2022-11-15T19:46:26.954Z,17.77
2022-11-15T19:48:54.174Z,16.85
2022-11-15T19:51:25.074Z,14.95
2022-11-15T19:54:01.430Z,14.80
2022-11-15T19:56:28.104Z,13.32
2022-11-15T19:58:56.054Z,12.52
2022-11-15T20:01:25.658Z,12.30
2022-11-15T20:03:54.723Z,11.65
2022-11-15T20:06:24.562Z,11.13
2022-11-15T20:08:51.590Z,10.10
2022-11-15T20:11:19.184Z,10.90
2022-11-15T20:13:46.332Z,8.88
2022-11-15T20:16:18.831Z,10.18
2022-11-15T20:18:45.667Z,12.63
2022-11-15T20:21:12.362Z,9.25
2022-11-15T20:23:39.330Z,9.95
2022-11-15T20:26:07.279Z,9.35
2022-11-15T20:28:36.709Z,10.32
2022-11-15T20:31:03.842Z,11.85
2022-11-15T20:33:30.598Z,14.82
2022-11-15T20:35:57.219Z,14.05
2022-11-15T20:38:23.961Z,14.63
2022-11-15T20:40:56.059Z,12.02
2022-11-15T20:43:25.694Z,12.50
2022-11-15T20:45:52.354Z,13.65
2022-11-15T20:48:19.054Z,13.68
2022-11-15T20:50:47.080Z,14.25
2022-11-15T20:53:18.271Z,14.70
2022-11-15T20:55:47.988Z,14.13
2022-11-15T20:58:15.709Z,13.40
2022-11-15T21:00:44.767Z,13.07
2022-11-15T21:03:14.313Z,15.50
2022-11-15T21:05:42.971Z,15.15
2022-11-15T21:08:11.006Z,15.32
2022-11-15T21:10:56.500Z,14.82
2022-11-15T21:13:23.138Z,24.30
2022-11-15T21:15:49.769Z,19.20
2022-11-15T21:18:16.625Z,17.55
2022-11-15T21:20:43.437Z,19.55
2022-11-15T21:23:11.648Z,21.30
2022-11-15T21:25:38.279Z,16.73
2022-11-15T21:28:05.122Z,17.23
2022-11-15T21:30:31.729Z,17.33
2022-11-15T21:32:58.367Z,17.17
2022-11-15T21:35:25.202Z,18.98
2022-11-15T21:37:56.396Z,15.70
2022-11-15T21:40:23.653Z,13.30
2022-11-15T21:42:50.300Z,12.60
2022-11-15T21:45:16.999Z,13.85
2022-11-15T21:47:46.474Z,11.23
2022-11-15T21:50:13.679Z,13.48
2022-11-15T21:52:40.884Z,13.25
2022-11-15T21:55:08.468Z,12.98
2022-11-15T21:57:35.107Z,12.88
2022-11-15T22:00:20.381Z,13.40
2022-11-15T22:02:47.025Z,12.30
2022-11-15T22:05:13.680Z,13.10
2022-11-15T22:07:40.450Z,12.60
2022-11-15T22:10:08.658Z,11.55
2022-11-15T22:12:35.252Z,13.00
2022-11-15T22:15:01.820Z,11.35
2022-11-15T22:17:48.399Z,11.77
2022-11-15T22:23:02.584Z,14.38
2022-11-15T22:25:29.743Z,11.40
2022-11-15T22:27:56.394Z,14.30
2022-11-15T22:30:24.295Z,11.43
2022-11-15T22:32:50.961Z,12.02
2022-11-15T22:35:17.808Z,10.80
2022-11-15T22:37:44.868Z,10.75
2022-11-15T22:40:11.594Z,12.45
2022-11-15T22:42:38.194Z,11.93
2022-11-15T22:45:05.218Z,13.10
2022-11-15T22:47:31.878Z,11.38
2022-11-15T22:49:58.611Z,14.77
2022-11-15T22:52:25.221Z,10.68
2022-11-15T22:54:51.891Z,11.10
2022-11-15T22:57:18.510Z,11.70
2022-11-15T22:59:45.200Z,9.70
2022-11-15T23:02:11.854Z,9.85
2022-11-15T23:04:38.495Z,10.63
2022-11-15T23:07:05.252Z,9.68
2022-11-15T23:09:31.923Z,8.73
2022-11-15T23:12:17.343Z,8.00
2022-11-15T23:14:44.010Z,8.02
2022-11-15T23:17:10.641Z,8.65
2022-11-15T23:19:37.317Z,8.43
2022-11-15T23:22:22.481Z,8.35
2022-11-15T23:24:49.226Z,9.18
2022-11-15T23:27:19.960Z,9.70
2022-11-15T23:30:05.786Z,8.55
2022-11-15T23:32:51.211Z,8.18
2022-11-15T23:35:17.893Z,8.55
2022-11-15T23:37:44.561Z,8.60
2022-11-15T23:40:11.976Z,8.63
2022-11-15T23:42:38.647Z,8.25
2022-11-15T23:45:06.200Z,8.27
2022-11-15T23:47:32.844Z,8.35
2022-11-15T23:49:59.492Z,8.25
2022-11-15T23:52:26.142Z,7.78
2022-11-15T23:54:52.868Z,7.65
2022-11-15T23:57:19.725Z,7.95
2022-11-15T23:59:46.357Z,7.72
